Washington Island, Wisconsin

7:27 PM CDT on August 27, 2016 (GMT -0500)
MARITIME | | Change Station

Elev 600 ft 46.60 °N, 84.70 °W | Updated 8 hours ago

Cloudy
Cloudy
64 °F
Feels Like 64 °F
N
0
Wind Variable Wind from NNE
Gusts mph

Today
High -- | Low -- °F
--% Chance of Precip.
Yesterday
High -- | Low -- °F
Precip. -- in
Pressure 30.12 in
Visibility 10.0 miles
Clouds Mostly Cloudy 1300 ft
Overcast 1900 ft
Dew Point 64 °F
Humidity 98%
Rainfall in
Snow Depth Not available.
6:02 AM 7:31 PM
Waning Crescent, 20% visible
METAR KESC 272356Z AUTO 00000KT 10SM BKN013 OVC019 18/17 A3005 RMK AO2 SLP198 T01830167 10200 20178 55001
Pressure 30.12 in
Visibility 10.0 miles
Clouds Mostly Cloudy 1300 ft
Overcast 1900 ft
Dew Point 64 °F
Humidity 98%
Rainfall in
Snow Depth Not available.
6:02 AM 7:31 PM
Waning Crescent, 20% visible
METAR KESC 272356Z AUTO 00000KT 10SM BKN013 OVC019 18/17 A3005 RMK AO2 SLP198 T01830167 10200 20178 55001

10-Day Weather Forecast

Almanac

Astronomy

Aug. 27, 2016 Rise Set
Actual Time
Civil Twilight
Nautical Twilight
Astronomical Twilight
Moon
Length of Visible Light
Length of Day
Tomorrow will be .
, % of the Moon is Illuminated

Today's Extremes

State Highs State Lows

Community

WunderPhotos

Upload Photos

1,935,472 photos uploaded!

WunderBlog® & News

Nearby

Air Quality

  Air Quality AQ Index Pollutant
Not available.

Snow Depth

Station Depth Elevation

Earthquake Activity

City Distance Mag. Time & Date
Minimum magnitude displayed is 2.5.

Coastal Water Temperatures

Place Temperature

Stations

Nearby Weather Stations

Station Location Temp. Windchill Dew Point Humidity Wind Precip. Elev Updated Type
                   

Watches & Warnings

There are currently no watches in effect.